Spankerton, Vermont
Current Conditions -  °F | °C
As of 7:55 PM on Monday 24 Nov 2014 (Local Time) from KRUT Reporting Station
Few Clouds Few Clouds  
Wind Chill: 64°   Ceiling: Unl
Heat Index: 64°   Visibility: 10mi
Dew Point: 48°   Wind: 12mph
Humidity: 56%   Direction: 190°S
Pressure: 29.51"   Gusts: 21mph
Location:  43.358°N, 73.1349°W
Report Text: KRUT 250055Z 19010G18KT 10SM FEW080 18/09 A2951 RMK AO1
Loading
Personal Weather Stations






























Interactive Weather Map New forecast layout! Learn more

10-Day Weather Forecast

Advertisements
Track Severe Weather on mobile